sensor_id;sensor_type;location;lat;lon;timestamp;temperature;humidity
75821;DHT22;64454;51.984;9.838;2023-08-08T00:01:48;15.60;1.00
75821;DHT22;64454;51.984;9.838;2023-08-08T00:04:16;15.60;1.00
75821;DHT22;64454;51.984;9.838;2023-08-08T00:06:46;15.60;1.00
75821;DHT22;64454;51.984;9.838;2023-08-08T00:09:14;15.50;1.00
75821;DHT22;64454;51.984;9.838;2023-08-08T00:11:43;15.50;1.00
75821;DHT22;64454;51.984;9.838;2023-08-08T00:14:10;15.50;1.00
75821;DHT22;64454;51.984;9.838;2023-08-08T00:16:37;15.40;1.00
75821;DHT22;64454;51.984;9.838;2023-08-08T00:19:04;15.40;1.00
75821;DHT22;64454;51.984;9.838;2023-08-08T00:21:31;15.40;1.00
75821;DHT22;64454;51.984;9.838;2023-08-08T00:23:59;15.30;1.00
75821;DHT22;64454;51.984;9.838;2023-08-08T00:26:26;15.40;1.00
75821;DHT22;64454;51.984;9.838;2023-08-08T00:28:53;15.50;1.00
75821;DHT22;64454;51.984;9.838;2023-08-08T00:31:20;15.40;1.00
75821;DHT22;64454;51.984;9.838;2023-08-08T00:33:47;15.50;1.00
75821;DHT22;64454;51.984;9.838;2023-08-08T00:36:14;15.60;1.00
75821;DHT22;64454;51.984;9.838;2023-08-08T00:38:41;15.60;1.00
75821;DHT22;64454;51.984;9.838;2023-08-08T00:41:09;15.50;1.00
75821;DHT22;64454;51.984;9.838;2023-08-08T00:43:36;15.60;1.00
75821;DHT22;64454;51.984;9.838;2023-08-08T00:46:03;15.70;1.00
75821;DHT22;64454;51.984;9.838;2023-08-08T00:48:31;15.60;1.00
75821;DHT22;64454;51.984;9.838;2023-08-08T00:50:59;15.50;1.00
75821;DHT22;64454;51.984;9.838;2023-08-08T00:53:27;15.40;1.00
75821;DHT22;64454;51.984;9.838;2023-08-08T00:55:56;15.40;1.00
75821;DHT22;64454;51.984;9.838;2023-08-08T00:58:26;15.30;1.00
75821;DHT22;64454;51.984;9.838;2023-08-08T01:00:54;15.20;1.00
75821;DHT22;64454;51.984;9.838;2023-08-08T01:03:25;15.30;1.00
75821;DHT22;64454;51.984;9.838;2023-08-08T01:05:59;15.40;1.00
75821;DHT22;64454;51.984;9.838;2023-08-08T01:08:35;15.50;1.00
75821;DHT22;64454;51.984;9.838;2023-08-08T01:11:09;15.40;1.00
75821;DHT22;64454;51.984;9.838;2023-08-08T01:13:38;15.50;1.00
75821;DHT22;64454;51.984;9.838;2023-08-08T01:16:07;15.50;1.00
75821;DHT22;64454;51.984;9.838;2023-08-08T01:18:35;15.50;1.00
75821;DHT22;64454;51.984;9.838;2023-08-08T01:21:04;15.50;1.00
75821;DHT22;64454;51.984;9.838;2023-08-08T01:23:41;15.50;1.00
75821;DHT22;64454;51.984;9.838;2023-08-08T01:26:12;15.70;1.00
75821;DHT22;64454;51.984;9.838;2023-08-08T01:28:42;15.80;1.00
75821;DHT22;64454;51.984;9.838;2023-08-08T01:31:09;15.80;1.00
75821;DHT22;64454;51.984;9.838;2023-08-08T01:33:37;15.80;1.00
75821;DHT22;64454;51.984;9.838;2023-08-08T01:36:10;15.80;1.00
75821;DHT22;64454;51.984;9.838;2023-08-08T01:38:43;15.70;1.00
75821;DHT22;64454;51.984;9.838;2023-08-08T01:41:15;15.60;1.00
75821;DHT22;64454;51.984;9.838;2023-08-08T01:43:44;15.70;1.00
75821;DHT22;64454;51.984;9.838;2023-08-08T01:46:12;15.70;1.00
75821;DHT22;64454;51.984;9.838;2023-08-08T01:48:39;15.60;1.00
75821;DHT22;64454;51.984;9.838;2023-08-08T01:51:06;15.60;1.00
75821;DHT22;64454;51.984;9.838;2023-08-08T01:53:33;15.60;1.00
75821;DHT22;64454;51.984;9.838;2023-08-08T01:56:00;15.70;1.00
75821;DHT22;64454;51.984;9.838;2023-08-08T01:58:29;15.70;1.00
75821;DHT22;64454;51.984;9.838;2023-08-08T02:00:56;15.80;1.00
75821;DHT22;64454;51.984;9.838;2023-08-08T02:03:23;15.80;1.00
75821;DHT22;64454;51.984;9.838;2023-08-08T02:05:50;15.70;1.00
75821;DHT22;64454;51.984;9.838;2023-08-08T02:08:17;15.90;1.00
75821;DHT22;64454;51.984;9.838;2023-08-08T02:10:44;15.80;1.00
75821;DHT22;64454;51.984;9.838;2023-08-08T02:13:11;15.80;1.00
75821;DHT22;64454;51.984;9.838;2023-08-08T02:15:39;15.80;1.00
75821;DHT22;64454;51.984;9.838;2023-08-08T02:18:06;15.80;1.00
75821;DHT22;64454;51.984;9.838;2023-08-08T02:20:34;15.80;1.00
75821;DHT22;64454;51.984;9.838;2023-08-08T02:23:01;15.90;1.00
75821;DHT22;64454;51.984;9.838;2023-08-08T02:25:28;15.90;1.00
75821;DHT22;64454;51.984;9.838;2023-08-08T02:27:56;15.70;1.00
75821;DHT22;64454;51.984;9.838;2023-08-08T02:30:23;15.70;1.00
75821;DHT22;64454;51.984;9.838;2023-08-08T02:32:51;15.70;1.00
75821;DHT22;64454;51.984;9.838;2023-08-08T02:35:18;15.70;1.00
75821;DHT22;64454;51.984;9.838;2023-08-08T02:37:45;15.60;1.00
75821;DHT22;64454;51.984;9.838;2023-08-08T02:40:12;15.60;1.00
75821;DHT22;64454;51.984;9.838;2023-08-08T02:42:39;15.70;1.00
75821;DHT22;64454;51.984;9.838;2023-08-08T02:45:07;15.70;1.00
75821;DHT22;64454;51.984;9.838;2023-08-08T02:47:34;15.60;1.00
75821;DHT22;64454;51.984;9.838;2023-08-08T02:50:03;15.60;1.00
75821;DHT22;64454;51.984;9.838;2023-08-08T02:52:30;15.70;1.00
75821;DHT22;64454;51.984;9.838;2023-08-08T02:54:57;15.70;1.00
75821;DHT22;64454;51.984;9.838;2023-08-08T02:57:24;15.70;1.00
75821;DHT22;64454;51.984;9.838;2023-08-08T02:59:50;15.70;1.00
75821;DHT22;64454;51.984;9.838;2023-08-08T03:02:17;15.60;1.00
75821;DHT22;64454;51.984;9.838;2023-08-08T03:04:44;15.60;1.00
75821;DHT22;64454;51.984;9.838;2023-08-08T03:07:12;15.70;1.00
75821;DHT22;64454;51.984;9.838;2023-08-08T03:09:39;15.70;1.00
75821;DHT22;64454;51.984;9.838;2023-08-08T03:12:07;15.70;1.00
75821;DHT22;64454;51.984;9.838;2023-08-08T03:14:35;15.70;1.00
75821;DHT22;64454;51.984;9.838;2023-08-08T03:17:02;15.70;1.00
75821;DHT22;64454;51.984;9.838;2023-08-08T03:19:29;15.80;1.00
75821;DHT22;64454;51.984;9.838;2023-08-08T03:21:55;15.80;1.00
75821;DHT22;64454;51.984;9.838;2023-08-08T03:24:24;15.80;1.00
75821;DHT22;64454;51.984;9.838;2023-08-08T03:26:50;15.80;1.00
75821;DHT22;64454;51.984;9.838;2023-08-08T03:29:19;15.60;1.00
75821;DHT22;64454;51.984;9.838;2023-08-08T03:31:47;15.60;1.00
75821;DHT22;64454;51.984;9.838;2023-08-08T03:34:16;15.70;1.00
75821;DHT22;64454;51.984;9.838;2023-08-08T03:36:45;15.60;1.00
75821;DHT22;64454;51.984;9.838;2023-08-08T03:39:12;15.60;1.00
75821;DHT22;64454;51.984;9.838;2023-08-08T03:41:40;15.60;1.00
75821;DHT22;64454;51.984;9.838;2023-08-08T03:44:07;15.60;1.00
75821;DHT22;64454;51.984;9.838;2023-08-08T03:46:34;15.70;1.00
75821;DHT22;64454;51.984;9.838;2023-08-08T03:49:01;15.70;1.00
75821;DHT22;64454;51.984;9.838;2023-08-08T03:51:28;15.70;1.00
75821;DHT22;64454;51.984;9.838;2023-08-08T03:53:55;15.60;1.00
75821;DHT22;64454;51.984;9.838;2023-08-08T03:56:22;15.60;1.00
75821;DHT22;64454;51.984;9.838;2023-08-08T03:58:51;15.60;1.00
75821;DHT22;64454;51.984;9.838;2023-08-08T04:01:17;15.60;1.00
75821;DHT22;64454;51.984;9.838;2023-08-08T04:03:44;15.70;1.00
75821;DHT22;64454;51.984;9.838;2023-08-08T04:06:11;15.60;1.00
75821;DHT22;64454;51.984;9.838;2023-08-08T04:08:38;15.60;1.00
75821;DHT22;64454;51.984;9.838;2023-08-08T04:11:05;15.60;1.00
75821;DHT22;64454;51.984;9.838;2023-08-08T04:13:32;15.60;1.00
75821;DHT22;64454;51.984;9.838;2023-08-08T04:16:00;15.70;1.00
75821;DHT22;64454;51.984;9.838;2023-08-08T04:18:27;15.60;1.00
75821;DHT22;64454;51.984;9.838;2023-08-08T04:20:54;15.60;1.00
75821;DHT22;64454;51.984;9.838;2023-08-08T04:23:21;15.60;1.00
75821;DHT22;64454;51.984;9.838;2023-08-08T04:25:50;15.50;1.00
75821;DHT22;64454;51.984;9.838;2023-08-08T04:28:17;15.60;1.00
75821;DHT22;64454;51.984;9.838;2023-08-08T04:30:44;15.60;1.00
75821;DHT22;64454;51.984;9.838;2023-08-08T04:33:13;15.60;1.00
75821;DHT22;64454;51.984;9.838;2023-08-08T04:35:40;15.60;1.00
75821;DHT22;64454;51.984;9.838;2023-08-08T04:38:08;15.60;1.00
75821;DHT22;64454;51.984;9.838;2023-08-08T04:40:35;15.70;1.00
75821;DHT22;64454;51.984;9.838;2023-08-08T04:43:02;15.70;1.00
75821;DHT22;64454;51.984;9.838;2023-08-08T04:45:29;15.70;1.00
75821;DHT22;64454;51.984;9.838;2023-08-08T04:47:55;15.70;1.00
75821;DHT22;64454;51.984;9.838;2023-08-08T04:50:24;15.80;1.00
75821;DHT22;64454;51.984;9.838;2023-08-08T04:52:51;15.70;1.00
75821;DHT22;64454;51.984;9.838;2023-08-08T04:55:18;15.60;1.00
75821;DHT22;64454;51.984;9.838;2023-08-08T04:57:45;15.70;1.00
75821;DHT22;64454;51.984;9.838;2023-08-08T05:00:14;15.70;1.00
75821;DHT22;64454;51.984;9.838;2023-08-08T05:02:41;15.70;1.00
75821;DHT22;64454;51.984;9.838;2023-08-08T05:05:08;15.70;1.00
75821;DHT22;64454;51.984;9.838;2023-08-08T05:07:37;15.70;1.00
75821;DHT22;64454;51.984;9.838;2023-08-08T05:10:05;15.70;1.00
75821;DHT22;64454;51.984;9.838;2023-08-08T05:12:32;15.90;1.00
75821;DHT22;64454;51.984;9.838;2023-08-08T05:14:59;15.90;1.00
75821;DHT22;64454;51.984;9.838;2023-08-08T05:17:26;16.00;1.00
75821;DHT22;64454;51.984;9.838;2023-08-08T05:19:53;15.90;1.00
75821;DHT22;64454;51.984;9.838;2023-08-08T05:22:20;16.00;1.00
75821;DHT22;64454;51.984;9.838;2023-08-08T05:24:48;15.90;1.00
75821;DHT22;64454;51.984;9.838;2023-08-08T05:27:15;16.00;1.00
75821;DHT22;64454;51.984;9.838;2023-08-08T05:29:41;16.10;1.00
75821;DHT22;64454;51.984;9.838;2023-08-08T05:32:08;16.20;1.00
75821;DHT22;64454;51.984;9.838;2023-08-08T05:34:35;16.40;1.00
75821;DHT22;64454;51.984;9.838;2023-08-08T05:37:02;16.40;1.00
75821;DHT22;64454;51.984;9.838;2023-08-08T05:39:30;16.20;1.00
75821;DHT22;64454;51.984;9.838;2023-08-08T05:41:58;16.30;1.00
75821;DHT22;64454;51.984;9.838;2023-08-08T05:44:25;16.40;1.00
75821;DHT22;64454;51.984;9.838;2023-08-08T05:46:52;16.40;1.00
75821;DHT22;64454;51.984;9.838;2023-08-08T05:49:20;16.40;1.00
75821;DHT22;64454;51.984;9.838;2023-08-08T05:51:47;16.40;1.00
75821;DHT22;64454;51.984;9.838;2023-08-08T05:54:15;16.30;1.00
75821;DHT22;64454;51.984;9.838;2023-08-08T05:56:44;16.30;1.00
75821;DHT22;64454;51.984;9.838;2023-08-08T05:59:13;16.40;1.00
75821;DHT22;64454;51.984;9.838;2023-08-08T06:01:42;16.60;1.00
75821;DHT22;64454;51.984;9.838;2023-08-08T06:04:09;16.60;1.00
75821;DHT22;64454;51.984;9.838;2023-08-08T06:06:36;16.60;1.00
75821;DHT22;64454;51.984;9.838;2023-08-08T06:09:04;16.50;1.00
75821;DHT22;64454;51.984;9.838;2023-08-08T06:11:31;16.60;1.00
75821;DHT22;64454;51.984;9.838;2023-08-08T06:13:57;16.60;1.00
75821;DHT22;64454;51.984;9.838;2023-08-08T06:16:26;16.60;1.00
75821;DHT22;64454;51.984;9.838;2023-08-08T06:18:52;16.40;1.00
75821;DHT22;64454;51.984;9.838;2023-08-08T06:21:19;16.50;1.00
75821;DHT22;64454;51.984;9.838;2023-08-08T06:23:46;16.50;1.00
75821;DHT22;64454;51.984;9.838;2023-08-08T06:26:14;16.50;1.00
75821;DHT22;64454;51.984;9.838;2023-08-08T06:28:41;16.60;1.00
75821;DHT22;64454;51.984;9.838;2023-08-08T06:31:08;16.30;1.00
75821;DHT22;64454;51.984;9.838;2023-08-08T06:33:36;16.40;1.00
75821;DHT22;64454;51.984;9.838;2023-08-08T06:36:04;16.60;1.00
75821;DHT22;64454;51.984;9.838;2023-08-08T06:38:31;16.80;1.00
75821;DHT22;64454;51.984;9.838;2023-08-08T06:40:59;16.90;1.00
75821;DHT22;64454;51.984;9.838;2023-08-08T06:43:26;16.90;1.00
75821;DHT22;64454;51.984;9.838;2023-08-08T06:45:53;16.90;1.00
75821;DHT22;64454;51.984;9.838;2023-08-08T06:48:21;16.80;1.00
75821;DHT22;64454;51.984;9.838;2023-08-08T06:50:49;16.90;1.00
75821;DHT22;64454;51.984;9.838;2023-08-08T06:53:16;17.00;1.00
75821;DHT22;64454;51.984;9.838;2023-08-08T06:55:42;17.10;1.00
75821;DHT22;64454;51.984;9.838;2023-08-08T06:58:09;17.20;1.00
75821;DHT22;64454;51.984;9.838;2023-08-08T07:00:36;17.40;1.00
75821;DHT22;64454;51.984;9.838;2023-08-08T07:03:03;17.50;1.00
75821;DHT22;64454;51.984;9.838;2023-08-08T07:05:31;17.50;1.00
75821;DHT22;64454;51.984;9.838;2023-08-08T07:08:00;17.70;1.00
75821;DHT22;64454;51.984;9.838;2023-08-08T07:10:27;17.70;1.00
75821;DHT22;64454;51.984;9.838;2023-08-08T07:12:55;17.70;1.00
75821;DHT22;64454;51.984;9.838;2023-08-08T07:15:21;17.70;1.00
75821;DHT22;64454;51.984;9.838;2023-08-08T07:17:49;17.80;1.00
75821;DHT22;64454;51.984;9.838;2023-08-08T07:20:16;18.00;1.00
75821;DHT22;64454;51.984;9.838;2023-08-08T07:22:43;18.00;1.00
75821;DHT22;64454;51.984;9.838;2023-08-08T07:25:11;18.00;1.00
75821;DHT22;64454;51.984;9.838;2023-08-08T07:27:38;18.00;1.00
75821;DHT22;64454;51.984;9.838;2023-08-08T07:30:06;17.80;1.00
75821;DHT22;64454;51.984;9.838;2023-08-08T07:32:34;17.80;1.00
75821;DHT22;64454;51.984;9.838;2023-08-08T07:35:01;17.80;1.00
75821;DHT22;64454;51.984;9.838;2023-08-08T07:37:31;17.70;1.00
75821;DHT22;64454;51.984;9.838;2023-08-08T07:39:58;17.90;1.00
75821;DHT22;64454;51.984;9.838;2023-08-08T07:42:27;18.00;1.00
75821;DHT22;64454;51.984;9.838;2023-08-08T07:44:54;18.00;1.00
75821;DHT22;64454;51.984;9.838;2023-08-08T07:47:20;18.20;1.00
75821;DHT22;64454;51.984;9.838;2023-08-08T07:49:47;18.30;1.00
75821;DHT22;64454;51.984;9.838;2023-08-08T07:52:14;18.40;1.00
75821;DHT22;64454;51.984;9.838;2023-08-08T07:54:41;18.50;1.00
75821;DHT22;64454;51.984;9.838;2023-08-08T07:57:08;18.60;1.00
75821;DHT22;64454;51.984;9.838;2023-08-08T07:59:37;19.00;1.00
75821;DHT22;64454;51.984;9.838;2023-08-08T08:02:04;19.20;1.00
75821;DHT22;64454;51.984;9.838;2023-08-08T08:04:33;19.40;1.00
75821;DHT22;64454;51.984;9.838;2023-08-08T08:07:00;19.60;1.00
75821;DHT22;64454;51.984;9.838;2023-08-08T08:09:27;19.70;1.00
75821;DHT22;64454;51.984;9.838;2023-08-08T08:11:54;19.90;1.00
75821;DHT22;64454;51.984;9.838;2023-08-08T08:14:21;20.00;1.00
75821;DHT22;64454;51.984;9.838;2023-08-08T08:16:51;20.10;1.00
75821;DHT22;64454;51.984;9.838;2023-08-08T08:19:20;20.00;1.00
75821;DHT22;64454;51.984;9.838;2023-08-08T08:21:46;20.10;1.00
75821;DHT22;64454;51.984;9.838;2023-08-08T08:24:14;20.10;1.00
75821;DHT22;64454;51.984;9.838;2023-08-08T08:26:42;20.40;1.00
75821;DHT22;64454;51.984;9.838;2023-08-08T08:29:09;20.70;1.00
75821;DHT22;64454;51.984;9.838;2023-08-08T08:31:36;21.10;1.00
75821;DHT22;64454;51.984;9.838;2023-08-08T08:34:05;21.00;1.00
75821;DHT22;64454;51.984;9.838;2023-08-08T08:36:32;21.00;1.00
75821;DHT22;64454;51.984;9.838;2023-08-08T08:38:59;20.70;1.00
75821;DHT22;64454;51.984;9.838;2023-08-08T08:41:27;20.40;1.00
75821;DHT22;64454;51.984;9.838;2023-08-08T08:43:55;20.50;1.00
75821;DHT22;64454;51.984;9.838;2023-08-08T08:46:22;20.20;1.00
75821;DHT22;64454;51.984;9.838;2023-08-08T08:48:54;20.10;1.00
75821;DHT22;64454;51.984;9.838;2023-08-08T08:51:23;20.00;1.00
75821;DHT22;64454;51.984;9.838;2023-08-08T08:53:51;19.90;1.00
75821;DHT22;64454;51.984;9.838;2023-08-08T08:56:18;19.70;1.00
75821;DHT22;64454;51.984;9.838;2023-08-08T08:58:45;19.80;1.00
75821;DHT22;64454;51.984;9.838;2023-08-08T09:01:12;20.00;1.00
75821;DHT22;64454;51.984;9.838;2023-08-08T09:03:41;20.10;1.00
75821;DHT22;64454;51.984;9.838;2023-08-08T09:06:11;20.10;1.00
75821;DHT22;64454;51.984;9.838;2023-08-08T09:08:40;20.00;1.00
75821;DHT22;64454;51.984;9.838;2023-08-08T09:11:06;19.80;1.00
75821;DHT22;64454;51.984;9.838;2023-08-08T09:13:36;19.50;1.00
75821;DHT22;64454;51.984;9.838;2023-08-08T09:16:04;19.60;1.00
75821;DHT22;64454;51.984;9.838;2023-08-08T09:18:31;19.90;1.00
75821;DHT22;64454;51.984;9.838;2023-08-08T09:20:58;19.70;1.00
75821;DHT22;64454;51.984;9.838;2023-08-08T09:23:26;19.50;1.00
75821;DHT22;64454;51.984;9.838;2023-08-08T09:25:54;19.20;1.00
75821;DHT22;64454;51.984;9.838;2023-08-08T09:28:21;19.10;1.00
75821;DHT22;64454;51.984;9.838;2023-08-08T09:30:48;19.00;1.00
75821;DHT22;64454;51.984;9.838;2023-08-08T09:33:17;18.80;1.00
75821;DHT22;64454;51.984;9.838;2023-08-08T09:35:44;18.50;1.00
75821;DHT22;64454;51.984;9.838;2023-08-08T09:38:11;18.60;1.00
75821;DHT22;64454;51.984;9.838;2023-08-08T09:40:38;18.80;1.00
75821;DHT22;64454;51.984;9.838;2023-08-08T09:43:08;19.60;1.00
75821;DHT22;64454;51.984;9.838;2023-08-08T09:45:38;20.20;1.00
75821;DHT22;64454;51.984;9.838;2023-08-08T09:48:07;20.80;1.00
75821;DHT22;64454;51.984;9.838;2023-08-08T09:50:34;21.30;1.00
75821;DHT22;64454;51.984;9.838;2023-08-08T09:53:02;21.80;1.00
75821;DHT22;64454;51.984;9.838;2023-08-08T09:55:30;22.00;1.00
75821;DHT22;64454;51.984;9.838;2023-08-08T09:57:58;21.80;1.00
75821;DHT22;64454;51.984;9.838;2023-08-08T10:00:27;21.20;1.00
75821;DHT22;64454;51.984;9.838;2023-08-08T10:02:56;20.50;1.00
75821;DHT22;64454;51.984;9.838;2023-08-08T10:05:26;19.80;1.00
75821;DHT22;64454;51.984;9.838;2023-08-08T10:07:54;19.30;1.00
75821;DHT22;64454;51.984;9.838;2023-08-08T10:10:22;19.30;1.00
75821;DHT22;64454;51.984;9.838;2023-08-08T10:12:49;18.90;1.00
75821;DHT22;64454;51.984;9.838;2023-08-08T10:15:16;19.10;1.00
75821;DHT22;64454;51.984;9.838;2023-08-08T10:17:45;19.60;1.00
75821;DHT22;64454;51.984;9.838;2023-08-08T10:20:13;20.10;1.00
75821;DHT22;64454;51.984;9.838;2023-08-08T10:22:44;20.70;1.00
75821;DHT22;64454;51.984;9.838;2023-08-08T10:25:18;21.20;1.00
75821;DHT22;64454;51.984;9.838;2023-08-08T10:27:46;21.50;1.00
75821;DHT22;64454;51.984;9.838;2023-08-08T10:30:13;21.60;1.00
75821;DHT22;64454;51.984;9.838;2023-08-08T10:32:42;21.90;1.00
75821;DHT22;64454;51.984;9.838;2023-08-08T10:35:13;22.00;1.00
75821;DHT22;64454;51.984;9.838;2023-08-08T10:37:40;22.30;1.00
75821;DHT22;64454;51.984;9.838;2023-08-08T10:40:18;22.60;1.00
75821;DHT22;64454;51.984;9.838;2023-08-08T10:42:47;22.70;1.00
75821;DHT22;64454;51.984;9.838;2023-08-08T10:45:15;22.40;1.00
75821;DHT22;64454;51.984;9.838;2023-08-08T10:47:43;22.60;1.00
75821;DHT22;64454;51.984;9.838;2023-08-08T10:50:13;22.70;1.00
75821;DHT22;64454;51.984;9.838;2023-08-08T10:52:53;22.70;1.00
75821;DHT22;64454;51.984;9.838;2023-08-08T10:55:21;22.90;1.00
75821;DHT22;64454;51.984;9.838;2023-08-08T10:57:57;22.60;1.00
75821;DHT22;64454;51.984;9.838;2023-08-08T11:00:27;22.10;1.00
75821;DHT22;64454;51.984;9.838;2023-08-08T11:02:57;21.70;1.00
75821;DHT22;64454;51.984;9.838;2023-08-08T11:05:28;21.60;1.00
75821;DHT22;64454;51.984;9.838;2023-08-08T11:07:56;21.80;1.00
75821;DHT22;64454;51.984;9.838;2023-08-08T11:10:24;21.90;1.00
75821;DHT22;64454;51.984;9.838;2023-08-08T11:12:57;22.30;1.00
75821;DHT22;64454;51.984;9.838;2023-08-08T11:15:25;22.70;1.00
75821;DHT22;64454;51.984;9.838;2023-08-08T11:17:53;23.20;1.00
75821;DHT22;64454;51.984;9.838;2023-08-08T11:20:21;23.60;1.00
75821;DHT22;64454;51.984;9.838;2023-08-08T11:22:54;23.90;1.00
75821;DHT22;64454;51.984;9.838;2023-08-08T11:25:21;23.80;1.00
75821;DHT22;64454;51.984;9.838;2023-08-08T11:27:52;24.00;1.00
75821;DHT22;64454;51.984;9.838;2023-08-08T11:30:21;23.90;1.00
75821;DHT22;64454;51.984;9.838;2023-08-08T11:32:49;23.80;1.00
75821;DHT22;64454;51.984;9.838;2023-08-08T11:35:17;23.90;1.00
75821;DHT22;64454;51.984;9.838;2023-08-08T11:37:45;23.90;1.00
75821;DHT22;64454;51.984;9.838;2023-08-08T11:40:14;24.10;1.00
75821;DHT22;64454;51.984;9.838;2023-08-08T11:42:42;24.00;1.00
75821;DHT22;64454;51.984;9.838;2023-08-08T11:45:11;23.60;1.00
75821;DHT22;64454;51.984;9.838;2023-08-08T11:47:38;23.60;1.00
75821;DHT22;64454;51.984;9.838;2023-08-08T11:50:08;23.70;1.00
75821;DHT22;64454;51.984;9.838;2023-08-08T11:52:39;23.70;1.00
75821;DHT22;64454;51.984;9.838;2023-08-08T11:55:08;24.00;1.00
75821;DHT22;64454;51.984;9.838;2023-08-08T11:57:37;24.20;1.00
75821;DHT22;64454;51.984;9.838;2023-08-08T12:00:06;24.30;1.00
75821;DHT22;64454;51.984;9.838;2023-08-08T12:02:38;24.30;1.00
75821;DHT22;64454;51.984;9.838;2023-08-08T12:05:06;24.20;1.00
75821;DHT22;64454;51.984;9.838;2023-08-08T12:07:35;24.00;1.00
75821;DHT22;64454;51.984;9.838;2023-08-08T12:10:04;24.00;1.00
75821;DHT22;64454;51.984;9.838;2023-08-08T12:12:32;23.70;1.00
75821;DHT22;64454;51.984;9.838;2023-08-08T12:15:06;23.50;1.00
75821;DHT22;64454;51.984;9.838;2023-08-08T12:17:34;23.20;1.00
75821;DHT22;64454;51.984;9.838;2023-08-08T12:20:02;23.10;1.00
75821;DHT22;64454;51.984;9.838;2023-08-08T12:22:30;23.00;1.00
75821;DHT22;64454;51.984;9.838;2023-08-08T12:24:58;23.00;1.00
75821;DHT22;64454;51.984;9.838;2023-08-08T12:27:25;23.00;1.00
75821;DHT22;64454;51.984;9.838;2023-08-08T12:29:52;23.20;1.00
75821;DHT22;64454;51.984;9.838;2023-08-08T12:32:21;23.20;1.00
75821;DHT22;64454;51.984;9.838;2023-08-08T12:34:49;23.40;1.00
75821;DHT22;64454;51.984;9.838;2023-08-08T12:37:16;23.50;1.00
75821;DHT22;64454;51.984;9.838;2023-08-08T12:39:43;23.60;1.00
75821;DHT22;64454;51.984;9.838;2023-08-08T12:42:10;23.90;1.00
75821;DHT22;64454;51.984;9.838;2023-08-08T12:44:37;23.80;1.00
75821;DHT22;64454;51.984;9.838;2023-08-08T12:47:04;23.80;1.00
75821;DHT22;64454;51.984;9.838;2023-08-08T12:49:33;23.80;1.00
75821;DHT22;64454;51.984;9.838;2023-08-08T12:52:00;24.00;1.00
75821;DHT22;64454;51.984;9.838;2023-08-08T12:54:27;24.20;1.00
75821;DHT22;64454;51.984;9.838;2023-08-08T12:56:53;24.30;1.00
75821;DHT22;64454;51.984;9.838;2023-08-08T12:59:21;24.20;1.00
75821;DHT22;64454;51.984;9.838;2023-08-08T13:01:48;24.00;1.00
75821;DHT22;64454;51.984;9.838;2023-08-08T13:04:16;24.00;1.00
75821;DHT22;64454;51.984;9.838;2023-08-08T13:06:47;24.20;1.00
75821;DHT22;64454;51.984;9.838;2023-08-08T13:09:15;24.30;1.00
75821;DHT22;64454;51.984;9.838;2023-08-08T13:11:45;24.10;1.00
75821;DHT22;64454;51.984;9.838;2023-08-08T13:14:12;23.70;1.00
75821;DHT22;64454;51.984;9.838;2023-08-08T13:16:40;22.90;1.00
75821;DHT22;64454;51.984;9.838;2023-08-08T13:19:07;22.30;1.00
75821;DHT22;64454;51.984;9.838;2023-08-08T13:21:34;22.00;1.00
75821;DHT22;64454;51.984;9.838;2023-08-08T13:24:03;21.90;1.00
75821;DHT22;64454;51.984;9.838;2023-08-08T13:26:32;21.80;1.00
75821;DHT22;64454;51.984;9.838;2023-08-08T13:28:58;21.70;1.00
75821;DHT22;64454;51.984;9.838;2023-08-08T13:31:25;21.70;1.00
75821;DHT22;64454;51.984;9.838;2023-08-08T13:33:52;21.90;1.00
75821;DHT22;64454;51.984;9.838;2023-08-08T13:36:19;22.20;1.00
75821;DHT22;64454;51.984;9.838;2023-08-08T13:38:46;22.50;1.00
75821;DHT22;64454;51.984;9.838;2023-08-08T13:41:14;22.90;1.00
75821;DHT22;64454;51.984;9.838;2023-08-08T13:43:41;23.30;1.00
75821;DHT22;64454;51.984;9.838;2023-08-08T13:46:09;23.30;1.00
75821;DHT22;64454;51.984;9.838;2023-08-08T13:48:36;23.30;1.00
75821;DHT22;64454;51.984;9.838;2023-08-08T13:51:03;23.10;1.00
75821;DHT22;64454;51.984;9.838;2023-08-08T13:53:30;23.30;1.00
75821;DHT22;64454;51.984;9.838;2023-08-08T13:55:57;23.40;1.00
75821;DHT22;64454;51.984;9.838;2023-08-08T13:58:26;23.60;1.00
75821;DHT22;64454;51.984;9.838;2023-08-08T14:00:54;23.60;1.00
75821;DHT22;64454;51.984;9.838;2023-08-08T14:03:22;23.50;1.00
75821;DHT22;64454;51.984;9.838;2023-08-08T14:05:49;23.40;1.00
75821;DHT22;64454;51.984;9.838;2023-08-08T14:08:18;23.00;1.00
75821;DHT22;64454;51.984;9.838;2023-08-08T14:10:45;23.00;1.00
75821;DHT22;64454;51.984;9.838;2023-08-08T14:13:12;22.80;1.00
75821;DHT22;64454;51.984;9.838;2023-08-08T14:15:41;22.60;1.00
75821;DHT22;64454;51.984;9.838;2023-08-08T14:18:07;22.30;1.00
75821;DHT22;64454;51.984;9.838;2023-08-08T14:20:36;22.10;1.00
75821;DHT22;64454;51.984;9.838;2023-08-08T14:23:03;22.00;1.00
75821;DHT22;64454;51.984;9.838;2023-08-08T14:25:31;21.90;1.00
75821;DHT22;64454;51.984;9.838;2023-08-08T14:27:58;22.10;1.00
75821;DHT22;64454;51.984;9.838;2023-08-08T14:30:25;22.30;1.00
75821;DHT22;64454;51.984;9.838;2023-08-08T14:32:54;22.40;1.00
75821;DHT22;64454;51.984;9.838;2023-08-08T14:35:21;22.30;1.00
75821;DHT22;64454;51.984;9.838;2023-08-08T14:37:49;22.30;1.00
75821;DHT22;64454;51.984;9.838;2023-08-08T14:40:16;22.20;1.00
75821;DHT22;64454;51.984;9.838;2023-08-08T14:42:43;21.90;1.00
75821;DHT22;64454;51.984;9.838;2023-08-08T14:45:10;21.80;1.00
75821;DHT22;64454;51.984;9.838;2023-08-08T14:47:37;21.50;1.00
75821;DHT22;64454;51.984;9.838;2023-08-08T14:50:06;21.40;1.00
75821;DHT22;64454;51.984;9.838;2023-08-08T14:52:34;21.30;1.00
75821;DHT22;64454;51.984;9.838;2023-08-08T14:55:01;20.90;1.00
75821;DHT22;64454;51.984;9.838;2023-08-08T14:57:28;20.80;1.00
75821;DHT22;64454;51.984;9.838;2023-08-08T14:59:58;20.80;1.00
75821;DHT22;64454;51.984;9.838;2023-08-08T15:02:25;20.70;1.00
75821;DHT22;64454;51.984;9.838;2023-08-08T15:04:53;20.80;1.00
75821;DHT22;64454;51.984;9.838;2023-08-08T15:07:21;20.90;1.00
75821;DHT22;64454;51.984;9.838;2023-08-08T15:09:48;20.90;1.00
75821;DHT22;64454;51.984;9.838;2023-08-08T15:12:17;20.80;1.00
75821;DHT22;64454;51.984;9.838;2023-08-08T15:14:44;20.70;1.00
75821;DHT22;64454;51.984;9.838;2023-08-08T15:17:11;20.80;1.00
75821;DHT22;64454;51.984;9.838;2023-08-08T15:19:38;20.70;1.00
75821;DHT22;64454;51.984;9.838;2023-08-08T15:22:05;20.50;1.00
75821;DHT22;64454;51.984;9.838;2023-08-08T15:24:34;20.40;1.00
75821;DHT22;64454;51.984;9.838;2023-08-08T15:27:02;20.40;1.00
75821;DHT22;64454;51.984;9.838;2023-08-08T15:29:29;20.10;1.00
75821;DHT22;64454;51.984;9.838;2023-08-08T15:31:56;20.10;1.00
75821;DHT22;64454;51.984;9.838;2023-08-08T15:34:23;20.30;1.00
75821;DHT22;64454;51.984;9.838;2023-08-08T15:36:50;20.20;1.00
75821;DHT22;64454;51.984;9.838;2023-08-08T15:39:19;20.20;1.00
75821;DHT22;64454;51.984;9.838;2023-08-08T15:41:49;20.30;1.00
75821;DHT22;64454;51.984;9.838;2023-08-08T15:44:18;20.40;1.00
75821;DHT22;64454;51.984;9.838;2023-08-08T15:46:46;20.40;1.00
75821;DHT22;64454;51.984;9.838;2023-08-08T15:49:14;20.70;1.00